createdAt,value
2018-02-11T00:00:02.760Z,45.17
2018-02-11T00:01:02.757Z,45.07
2018-02-11T00:02:56.378Z,45.27
2018-02-11T00:03:56.385Z,45.36
2018-02-11T00:05:50.013Z,44.98
2018-02-11T00:06:50.008Z,45.07
2018-02-11T00:08:43.625Z,44.49
2018-02-11T00:09:43.635Z,44.49
2018-02-11T00:11:37.247Z,44.49
2018-02-11T00:12:37.256Z,44.89
2018-02-11T00:14:30.884Z,44.31
2018-02-11T00:15:30.882Z,44.21
2018-02-11T00:17:24.500Z,44.40
2018-02-11T00:18:24.509Z,44.49
2018-02-11T00:20:18.135Z,44.69
2018-02-11T00:21:18.137Z,44.11
2018-02-11T00:23:11.750Z,44.31
2018-02-11T00:24:11.759Z,43.92
2018-02-11T00:26:05.420Z,44.11
2018-02-11T00:27:05.386Z,44.42
2018-02-11T00:28:59.011Z,44.40
2018-02-11T00:29:59.019Z,44.02
2018-02-11T00:31:52.658Z,44.13
2018-02-11T00:32:52.655Z,44.23
2018-02-11T00:34:46.270Z,44.21
2018-02-11T00:35:46.281Z,44.04
2018-02-11T00:37:39.908Z,43.73
2018-02-11T00:38:39.916Z,43.63
2018-02-11T00:40:33.545Z,43.75
2018-02-11T00:41:33.543Z,43.55
2018-02-11T00:43:27.170Z,43.65
2018-02-11T00:44:27.170Z,43.63
2018-02-11T00:46:20.800Z,43.54
2018-02-11T00:47:20.795Z,43.63
2018-02-11T00:49:14.411Z,43.73
2018-02-11T00:50:14.420Z,43.54
2018-02-11T00:52:08.044Z,43.55
2018-02-11T00:53:08.044Z,43.63
2018-02-11T00:55:01.661Z,43.73
2018-02-11T00:56:01.668Z,43.73
2018-02-11T00:57:55.295Z,43.82
2018-02-11T00:58:55.305Z,43.54
2018-02-11T01:00:49.002Z,43.54
2018-02-11T01:01:48.999Z,43.73
2018-02-11T01:03:42.616Z,43.73
2018-02-11T01:04:42.626Z,43.34
2018-02-11T01:06:36.250Z,43.63
2018-02-11T01:07:36.248Z,43.44
2018-02-11T01:09:29.862Z,43.54
2018-02-11T01:10:29.872Z,43.63
2018-02-11T01:12:23.500Z,43.63
2018-02-11T01:13:23.497Z,43.63
2018-02-11T01:15:17.113Z,44.21
2018-02-11T01:16:17.122Z,44.02
2018-02-11T01:18:10.754Z,44.31
2018-02-11T01:19:10.749Z,44.31
2018-02-11T01:21:04.367Z,44.21
2018-02-11T01:22:04.370Z,44.21
2018-02-11T01:23:57.988Z,44.21
2018-02-11T01:24:57.995Z,43.92
2018-02-11T01:26:51.647Z,43.63
2018-02-11T01:27:51.631Z,43.63
2018-02-11T01:29:45.279Z,43.92
2018-02-11T01:30:45.255Z,43.63
2018-02-11T01:32:38.904Z,43.82
2018-02-11T01:33:38.890Z,43.73
2018-02-11T01:35:32.521Z,43.63
2018-02-11T01:36:32.529Z,43.73
2018-02-11T01:38:26.202Z,43.63
2018-02-11T01:39:26.155Z,43.73
2018-02-11T01:41:19.780Z,43.54
2018-02-11T01:42:19.789Z,43.54
2018-02-11T01:44:13.406Z,43.34
2018-02-11T01:45:13.416Z,43.24
2018-02-11T01:47:07.042Z,43.15
2018-02-11T01:48:07.043Z,42.96
2018-02-11T01:50:00.656Z,43.05
2018-02-11T01:51:00.666Z,42.96
2018-02-11T01:52:54.304Z,42.86
2018-02-11T01:53:54.300Z,42.67
2018-02-11T01:55:47.953Z,42.76
2018-02-11T01:56:47.936Z,43.05
2018-02-11T01:58:41.571Z,42.86
2018-02-11T01:59:41.578Z,42.86
2018-02-11T02:01:35.186Z,42.86
2018-02-11T02:02:35.195Z,42.96
2018-02-11T02:04:28.819Z,42.86
2018-02-11T02:05:28.820Z,42.96
2018-02-11T02:07:22.467Z,42.76
2018-02-11T02:08:22.446Z,42.96
2018-02-11T02:10:16.061Z,42.86
2018-02-11T02:11:16.069Z,42.86
2018-02-11T02:13:09.694Z,42.76
2018-02-11T02:14:09.694Z,42.86
2018-02-11T02:16:03.310Z,42.76
2018-02-11T02:17:03.318Z,42.76
2018-02-11T02:18:56.999Z,42.67
2018-02-11T02:19:56.999Z,42.86
2018-02-11T02:21:50.615Z,42.47
2018-02-11T02:22:50.623Z,42.76
2018-02-11T02:24:44.249Z,42.47
2018-02-11T02:25:44.248Z,42.96
2018-02-11T02:27:37.864Z,42.96
2018-02-11T02:28:37.873Z,42.86
2018-02-11T02:30:31.512Z,42.86
2018-02-11T02:31:31.507Z,42.38
2018-02-11T02:33:25.158Z,42.38
2018-02-11T02:34:25.143Z,42.38
2018-02-11T02:36:18.768Z,42.19
2018-02-11T02:37:18.777Z,42.38
2018-02-11T02:39:12.413Z,42.28
2018-02-11T02:40:12.416Z,42.38
2018-02-11T02:42:06.027Z,42.57
2018-02-11T02:43:06.037Z,42.28
2018-02-11T02:44:59.673Z,42.57
2018-02-11T02:45:59.674Z,42.47
2018-02-11T02:47:53.290Z,42.67
2018-02-11T02:48:53.298Z,42.57
2018-02-11T02:50:46.928Z,42.47
2018-02-11T02:51:46.924Z,42.57
2018-02-11T02:53:41.543Z,42.47
2018-02-11T02:54:41.550Z,42.57
2018-02-11T02:56:35.166Z,42.57
2018-02-11T02:57:35.174Z,42.57
2018-02-11T02:59:28.810Z,42.76
2018-02-11T03:00:28.807Z,42.57
2018-02-11T03:02:22.440Z,42.67
2018-02-11T03:03:22.447Z,42.57
2018-02-11T03:05:16.072Z,42.67
2018-02-11T03:06:16.074Z,42.67
2018-02-11T03:08:09.688Z,42.67
2018-02-11T03:09:09.698Z,42.67
2018-02-11T03:11:03.332Z,42.67
2018-02-11T03:12:03.331Z,42.28
2018-02-11T03:13:56.958Z,42.67
2018-02-11T03:14:56.967Z,42.67
2018-02-11T03:16:50.596Z,42.09
2018-02-11T03:17:50.602Z,42.57
2018-02-11T03:19:44.239Z,42.19
2018-02-11T03:20:44.237Z,41.99
2018-02-11T03:22:37.852Z,42.19
2018-02-11T03:23:37.861Z,42.28
2018-02-11T03:25:31.488Z,42.67
2018-02-11T03:26:31.485Z,41.89
2018-02-11T03:28:25.103Z,42.76
2018-02-11T03:29:25.111Z,41.99
2018-02-11T03:31:18.741Z,41.89
2018-02-11T03:32:18.735Z,41.99
2018-02-11T03:34:12.351Z,42.09
2018-02-11T03:35:12.360Z,42.47
2018-02-11T03:37:05.976Z,42.09
2018-02-11T03:38:05.989Z,41.99
2018-02-11T03:39:59.616Z,41.61
2018-02-11T03:40:59.611Z,41.51
2018-02-11T03:42:53.238Z,41.99
2018-02-11T03:43:53.246Z,42.09
2018-02-11T03:45:46.872Z,42.09
2018-02-11T03:46:46.869Z,41.89
2018-02-11T03:50:13.486Z,41.71
2018-02-11T03:51:13.486Z,41.61
2018-02-11T03:53:07.098Z,41.61
2018-02-11T03:54:07.109Z,41.99
2018-02-11T03:56:00.725Z,41.71
2018-02-11T03:57:00.733Z,41.80
2018-02-11T03:58:54.348Z,41.51
2018-02-11T03:59:54.358Z,41.51
2018-02-11T04:01:47.975Z,41.80
2018-02-11T04:02:47.982Z,41.41
2018-02-11T04:04:41.630Z,41.80
2018-02-11T04:05:41.631Z,41.71
2018-02-11T04:07:35.246Z,41.51
2018-02-11T04:08:35.308Z,41.51
2018-02-11T04:10:28.878Z,41.41
2018-02-11T04:11:28.878Z,41.41
2018-02-11T04:13:22.533Z,41.61
2018-02-11T04:14:22.541Z,41.80
2018-02-11T04:16:16.156Z,41.99
2018-02-11T04:17:16.164Z,41.80
2018-02-11T04:19:09.778Z,41.61
2018-02-11T04:20:09.788Z,41.89
2018-02-11T04:22:03.414Z,41.80
2018-02-11T04:23:03.423Z,42.09
2018-02-11T04:24:57.059Z,42.57
2018-02-11T04:25:57.059Z,42.67
2018-02-11T04:27:50.678Z,42.57
2018-02-11T04:28:50.685Z,42.55
2018-02-11T04:30:44.320Z,42.74
2018-02-11T04:31:44.318Z,41.59
2018-02-11T04:33:37.933Z,41.78
2018-02-11T04:34:37.941Z,41.80
2018-02-11T04:36:31.559Z,41.89
2018-02-11T04:37:31.566Z,41.49
2018-02-11T04:39:25.185Z,42.07
2018-02-11T04:40:25.192Z,42.07
2018-02-11T04:42:18.810Z,42.36
2018-02-11T04:43:18.817Z,42.07
2018-02-11T04:45:12.452Z,41.99
2018-02-11T04:46:12.453Z,42.07
2018-02-11T04:48:06.080Z,41.78
2018-02-11T04:49:06.086Z,41.88
2018-02-11T04:50:59.712Z,41.68
2018-02-11T04:51:59.719Z,41.68
2018-02-11T04:53:53.336Z,41.78
2018-02-11T04:54:53.344Z,41.78
2018-02-11T04:56:46.989Z,41.32
2018-02-11T04:57:46.996Z,41.41
2018-02-11T04:59:40.622Z,41.41
2018-02-11T05:00:40.621Z,41.51
2018-02-11T05:02:34.257Z,41.41
2018-02-11T05:03:34.254Z,41.41
2018-02-11T05:05:27.891Z,41.41
2018-02-11T05:06:27.890Z,41.32
2018-02-11T05:08:21.506Z,41.13
2018-02-11T05:09:21.556Z,41.13
2018-02-11T05:11:15.141Z,41.13
2018-02-11T05:12:15.149Z,41.22
2018-02-11T05:14:08.771Z,41.32
2018-02-11T05:15:08.776Z,41.22
2018-02-11T05:17:02.395Z,41.51
2018-02-11T05:18:02.403Z,41.03
2018-02-11T05:19:56.030Z,41.22
2018-02-11T05:20:56.026Z,41.03
2018-02-11T05:22:49.644Z,41.41
2018-02-11T05:23:49.658Z,41.41
2018-02-11T05:25:43.291Z,41.03
2018-02-11T05:26:43.290Z,41.03
2018-02-11T05:28:36.905Z,41.22
2018-02-11T05:29:36.919Z,41.32
2018-02-11T05:31:30.532Z,41.22
2018-02-11T05:32:30.540Z,41.22
2018-02-11T05:34:24.155Z,41.22
2018-02-11T05:35:24.163Z,41.22
2018-02-11T05:37:17.782Z,41.13
2018-02-11T05:38:17.790Z,41.22
2018-02-11T05:40:11.419Z,41.22
2018-02-11T05:41:11.414Z,41.03
2018-02-11T05:43:05.039Z,41.03
2018-02-11T05:44:05.050Z,41.13
2018-02-11T05:45:58.685Z,41.32
2018-02-11T05:46:58.684Z,41.32
2018-02-11T05:48:52.312Z,41.13
2018-02-11T05:49:52.308Z,40.94
2018-02-11T05:51:45.934Z,41.22
2018-02-11T05:52:45.942Z,41.22
2018-02-11T05:54:39.560Z,41.13
2018-02-11T05:55:39.567Z,41.22
2018-02-11T05:57:33.202Z,41.13
2018-02-11T05:58:33.207Z,41.13
2018-02-11T06:00:26.844Z,41.03
2018-02-11T06:01:26.840Z,40.94
2018-02-11T06:03:20.455Z,41.13
2018-02-11T06:04:20.465Z,41.13
2018-02-11T06:06:14.100Z,41.03
2018-02-11T06:07:14.099Z,41.22
2018-02-11T06:09:07.715Z,41.32
2018-02-11T06:10:07.722Z,41.03
2018-02-11T06:12:01.342Z,41.03
2018-02-11T06:13:01.347Z,41.11
2018-02-11T06:14:54.989Z,41.13
2018-02-11T06:15:54.998Z,41.03
2018-02-11T06:17:48.613Z,41.03
2018-02-11T06:18:48.623Z,41.03
2018-02-11T06:20:42.249Z,41.22
2018-02-11T06:21:42.249Z,41.13
2018-02-11T06:23:35.865Z,41.13
2018-02-11T06:24:35.871Z,41.03
2018-02-11T06:26:29.487Z,41.13
2018-02-11T06:27:29.497Z,41.03
2018-02-11T06:29:23.174Z,41.30
2018-02-11T06:30:23.131Z,41.22
2018-02-11T06:32:16.758Z,41.22
2018-02-11T06:33:16.765Z,41.22
2018-02-11T06:35:10.412Z,41.32
2018-02-11T06:36:10.411Z,41.41
2018-02-11T06:38:04.035Z,40.84
2018-02-11T06:39:04.042Z,41.03
2018-02-11T06:40:57.671Z,41.22
2018-02-11T06:41:57.668Z,41.13
2018-02-11T06:43:51.281Z,41.32
2018-02-11T06:44:51.292Z,41.22
2018-02-11T06:46:44.992Z,41.51
2018-02-11T06:47:44.999Z,41.03
2018-02-11T06:49:38.615Z,41.22
2018-02-11T06:50:38.622Z,41.22
2018-02-11T06:52:32.239Z,41.22
2018-02-11T06:53:32.250Z,41.39
2018-02-11T06:55:25.876Z,41.03
2018-02-11T06:56:25.875Z,41.20
2018-02-11T06:58:19.494Z,41.22
2018-02-11T06:59:19.498Z,41.20
2018-02-11T07:01:13.134Z,41.30
2018-02-11T07:02:13.132Z,41.22
2018-02-11T07:04:06.746Z,41.32
2018-02-11T07:05:06.776Z,41.32
2018-02-11T07:07:00.381Z,41.03
2018-02-11T07:08:00.391Z,40.55
2018-02-11T07:09:54.007Z,40.84
2018-02-11T07:10:54.016Z,40.64
2018-02-11T07:12:47.634Z,40.74
2018-02-11T07:13:47.642Z,40.74
2018-02-11T07:15:41.267Z,40.16
2018-02-11T07:16:41.263Z,40.16
2018-02-11T07:18:34.880Z,40.16
2018-02-11T07:19:34.891Z,40.36
2018-02-11T07:21:28.516Z,40.16
2018-02-11T07:22:28.513Z,39.97
2018-02-11T07:24:22.141Z,40.16
2018-02-11T07:25:22.149Z,40.07
2018-02-11T07:27:15.791Z,40.07
2018-02-11T07:28:15.773Z,40.16
2018-02-11T07:30:09.392Z,40.16
2018-02-11T07:31:09.398Z,40.16
2018-02-11T07:33:03.028Z,40.19
2018-02-11T07:34:03.033Z,40.36
2018-02-11T07:35:56.660Z,40.16
2018-02-11T07:36:56.658Z,40.45
2018-02-11T07:38:50.278Z,40.36
2018-02-11T07:39:50.285Z,40.55
2018-02-11T07:41:43.912Z,40.45
2018-02-11T07:42:43.910Z,40.16
2018-02-11T07:44:37.526Z,40.16
2018-02-11T07:45:37.557Z,40.26
2018-02-11T07:47:31.158Z,40.16
2018-02-11T07:48:31.162Z,40.07
2018-02-11T07:50:24.798Z,40.07
2018-02-11T07:51:24.796Z,39.87
2018-02-11T07:53:18.412Z,40.07
2018-02-11T07:54:18.421Z,40.16
2018-02-11T07:56:12.053Z,39.78
2018-02-11T07:57:12.051Z,40.07
2018-02-11T07:59:05.679Z,40.36
2018-02-11T08:00:05.686Z,39.78
2018-02-11T08:01:59.305Z,40.07
2018-02-11T08:02:59.315Z,40.36
2018-02-11T08:04:52.991Z,40.07
2018-02-11T08:05:52.998Z,40.36
2018-02-11T08:07:46.621Z,40.07
2018-02-11T08:08:46.632Z,39.97
2018-02-11T08:10:40.262Z,40.07
2018-02-11T08:11:40.260Z,40.36
2018-02-11T08:13:33.883Z,40.26
2018-02-11T08:14:33.889Z,40.55
2018-02-11T08:16:27.533Z,40.07
2018-02-11T08:17:27.532Z,40.45
2018-02-11T08:19:21.146Z,40.36
2018-02-11T08:20:21.153Z,40.16
2018-02-11T08:22:14.767Z,39.97
2018-02-11T08:23:14.776Z,40.16
2018-02-11T08:25:08.390Z,39.68
2018-02-11T08:26:08.398Z,39.49
2018-02-11T08:28:02.013Z,39.29
2018-02-11T08:29:02.023Z,39.11
2018-02-11T08:30:55.645Z,39.28
2018-02-11T08:31:55.644Z,39.28
2018-02-11T08:33:49.266Z,39.01
2018-02-11T08:34:49.276Z,38.41
2018-02-11T08:36:42.902Z,38.22
2018-02-11T08:37:42.899Z,38.22
2018-02-11T08:39:36.042Z,38.22
2018-02-11T08:40:36.050Z,38.24
2018-02-11T08:42:29.685Z,38.24
2018-02-11T08:43:29.692Z,37.95
2018-02-11T08:45:23.316Z,38.14
2018-02-11T08:46:23.325Z,38.04
2018-02-11T08:48:16.940Z,37.95
2018-02-11T08:49:16.949Z,38.14
2018-02-11T08:51:10.572Z,37.96
2018-02-11T08:52:10.571Z,38.16
2018-02-11T08:54:04.184Z,37.87
2018-02-11T08:55:04.203Z,37.39
2018-02-11T08:56:57.821Z,37.19
2018-02-11T08:57:57.817Z,38.06
2018-02-11T08:59:51.440Z,37.77
2018-02-11T09:00:51.466Z,37.19
2018-02-11T09:02:45.066Z,37.19
2018-02-11T09:03:45.075Z,37.19
2018-02-11T09:05:38.713Z,37.48
2018-02-11T09:06:38.719Z,37.58
2018-02-11T09:08:32.316Z,37.58
2018-02-11T09:09:32.326Z,37.48
2018-02-11T09:11:25.952Z,37.87
2018-02-11T09:12:25.954Z,37.39
2018-02-11T09:14:19.568Z,37.77
2018-02-11T09:15:19.575Z,37.87
2018-02-11T09:17:13.204Z,37.77
2018-02-11T09:18:13.203Z,38.16
2018-02-11T09:20:06.819Z,38.35
2018-02-11T09:21:06.828Z,38.45
2018-02-11T09:23:00.445Z,39.03
2018-02-11T09:24:00.456Z,39.12
2018-02-11T09:25:54.088Z,39.12
2018-02-11T09:26:54.090Z,39.51
2018-02-11T09:28:47.708Z,38.93
2018-02-11T09:29:47.713Z,39.12
2018-02-11T09:31:41.342Z,39.31
2018-02-11T09:32:41.369Z,39.61
2018-02-11T09:34:34.990Z,39.41
2018-02-11T09:35:34.996Z,39.61
2018-02-11T09:37:28.615Z,40.09
2018-02-11T09:38:28.624Z,41.34
2018-02-11T09:40:22.239Z,39.51
2018-02-11T09:41:22.252Z,39.59
2018-02-11T09:43:15.864Z,39.49
2018-02-11T09:44:15.872Z,39.87
2018-02-11T09:46:09.508Z,39.97
2018-02-11T09:47:09.508Z,40.07
2018-02-11T09:49:03.137Z,40.84
2018-02-11T09:50:03.169Z,41.41
2018-02-11T09:51:56.785Z,41.32
2018-02-11T09:52:56.782Z,41.13
2018-02-11T09:54:50.399Z,40.84
2018-02-11T09:55:50.409Z,41.22
2018-02-11T09:57:44.035Z,41.41
2018-02-11T09:58:44.044Z,41.41
2018-02-11T10:00:37.669Z,41.61
2018-02-11T10:01:37.684Z,41.71
2018-02-11T10:03:31.294Z,41.71
2018-02-11T10:04:31.302Z,41.99
2018-02-11T10:06:24.999Z,42.67
2018-02-11T10:07:24.997Z,42.47
2018-02-11T10:09:18.646Z,42.67
2018-02-11T10:10:18.651Z,42.38
2018-02-11T10:12:12.279Z,42.28
2018-02-11T10:13:12.277Z,42.76
2018-02-11T10:15:05.893Z,42.96
2018-02-11T10:16:05.903Z,42.19
2018-02-11T10:17:59.527Z,42.19
2018-02-11T10:18:59.534Z,42.47
2018-02-11T10:20:53.161Z,42.28
2018-02-11T10:21:53.172Z,42.28
2018-02-11T10:23:46.790Z,42.28
2018-02-11T10:24:46.796Z,42.28
2018-02-11T10:26:40.431Z,42.67
2018-02-11T10:27:40.428Z,42.57
2018-02-11T10:29:34.078Z,42.67
2018-02-11T10:30:34.075Z,42.28
2018-02-11T10:32:27.711Z,42.47
2018-02-11T10:33:27.710Z,42.28
2018-02-11T10:35:21.340Z,42.76
2018-02-11T10:36:21.332Z,42.86
2018-02-11T10:38:14.991Z,42.67
2018-02-11T10:39:15.000Z,42.96
2018-02-11T10:41:08.625Z,43.44
2018-02-11T10:42:08.623Z,43.44
2018-02-11T10:44:02.240Z,43.34
2018-02-11T10:45:02.251Z,43.34
2018-02-11T10:46:55.874Z,43.05
2018-02-11T10:47:55.870Z,43.63
2018-02-11T10:49:49.495Z,43.75
2018-02-11T10:50:49.503Z,43.55
2018-02-11T10:52:43.127Z,43.37
2018-02-11T10:53:43.126Z,43.37
2018-02-11T10:55:36.750Z,43.55
2018-02-11T10:56:36.758Z,43.85
2018-02-11T10:58:30.381Z,43.27
2018-02-11T10:59:30.393Z,43.17
2018-02-11T11:01:24.062Z,43.07
2018-02-11T11:02:24.015Z,42.97
2018-02-11T11:04:17.640Z,43.65
2018-02-11T11:05:17.648Z,43.37
2018-02-11T11:07:11.273Z,43.75
2018-02-11T11:08:11.272Z,43.37
2018-02-11T11:10:04.887Z,43.17
2018-02-11T11:11:04.895Z,43.37
2018-02-11T11:12:58.519Z,43.27
2018-02-11T11:13:58.527Z,42.79
2018-02-11T11:15:52.141Z,42.79
2018-02-11T11:16:52.151Z,42.76
2018-02-11T11:18:45.765Z,42.47
2018-02-11T11:19:45.775Z,42.38
2018-02-11T11:21:39.405Z,42.57
2018-02-11T11:22:39.404Z,42.67
2018-02-11T11:24:33.021Z,42.47
2018-02-11T11:25:33.030Z,42.67
2018-02-11T11:27:26.653Z,42.09
2018-02-11T11:28:26.652Z,42.38
2018-02-11T11:30:20.264Z,42.76
2018-02-11T11:31:20.274Z,42.76
2018-02-11T11:33:13.889Z,42.28
2018-02-11T11:34:13.896Z,41.99
2018-02-11T11:36:07.521Z,42.09
2018-02-11T11:37:07.528Z,41.89
2018-02-11T11:39:01.144Z,41.71
2018-02-11T11:40:01.151Z,41.99
2018-02-11T11:41:54.774Z,42.09
2018-02-11T11:42:54.772Z,42.09
2018-02-11T11:44:48.397Z,42.09
2018-02-11T11:45:48.404Z,41.51
2018-02-11T11:47:42.031Z,41.39
2018-02-11T11:48:42.028Z,41.30
2018-02-11T11:50:35.655Z,41.49
2018-02-11T11:51:35.664Z,41.59
2018-02-11T11:53:29.275Z,41.32
2018-02-11T11:54:29.282Z,41.30
2018-02-11T11:56:22.907Z,41.03
2018-02-11T11:57:22.905Z,41.32
2018-02-11T11:59:16.520Z,41.22
2018-02-11T12:00:16.530Z,41.03
2018-02-11T12:02:10.165Z,41.71
2018-02-11T12:03:10.160Z,41.32
2018-02-11T12:05:03.776Z,41.32
2018-02-11T12:06:03.785Z,41.13
2018-02-11T12:07:57.427Z,41.22
2018-02-11T12:08:57.409Z,41.03
2018-02-11T12:10:51.043Z,40.74
2018-02-11T12:11:51.052Z,40.26
2018-02-11T12:13:44.663Z,40.07
2018-02-11T12:14:44.674Z,40.16
2018-02-11T12:16:38.308Z,40.26
2018-02-11T12:17:38.306Z,40.16
2018-02-11T12:19:31.918Z,39.61
2018-02-11T12:20:31.927Z,39.51
2018-02-11T12:22:25.562Z,39.70
2018-02-11T12:23:25.560Z,39.41
2018-02-11T12:25:19.176Z,39.31
2018-02-11T12:26:19.182Z,39.61
2018-02-11T12:28:12.817Z,39.31
2018-02-11T12:29:12.815Z,39.61
2018-02-11T12:31:06.429Z,39.22
2018-02-11T12:32:06.441Z,39.22
2018-02-11T12:34:00.052Z,39.51
2018-02-11T12:35:00.063Z,39.70
2018-02-11T12:36:53.674Z,39.61
2018-02-11T12:37:53.684Z,39.51
2018-02-11T12:39:47.307Z,39.61
2018-02-11T12:40:47.315Z,40.19
2018-02-11T12:42:40.981Z,40.76
2018-02-11T12:43:40.952Z,40.28
2018-02-11T12:45:34.567Z,41.24
2018-02-11T12:46:34.577Z,41.34
2018-02-11T12:48:28.205Z,41.72
2018-02-11T12:49:28.198Z,41.63
2018-02-11T12:51:21.810Z,41.82
2018-02-11T12:52:21.823Z,41.72
2018-02-11T12:54:15.456Z,41.92
2018-02-11T12:55:15.456Z,41.71
2018-02-11T12:57:09.072Z,41.89
2018-02-11T12:58:09.084Z,42.09
2018-02-11T13:00:02.708Z,42.09
2018-02-11T13:01:02.709Z,42.19
2018-02-11T13:02:56.320Z,42.67
2018-02-11T13:03:56.329Z,42.57
2018-02-11T13:05:49.942Z,42.57
2018-02-11T13:06:49.951Z,42.28
2018-02-11T13:08:43.586Z,42.47
2018-02-11T13:09:43.583Z,42.57
2018-02-11T13:11:37.198Z,42.47
2018-02-11T13:12:37.206Z,42.67
2018-02-11T13:14:30.842Z,42.47
2018-02-11T13:15:30.840Z,42.76
2018-02-11T13:17:24.466Z,43.34
2018-02-11T13:18:24.474Z,43.05
2018-02-11T13:20:18.110Z,43.05
2018-02-11T13:21:18.108Z,42.76
2018-02-11T13:23:11.737Z,43.05
2018-02-11T13:24:11.749Z,43.24
2018-02-11T13:26:05.370Z,43.63
2018-02-11T13:27:05.366Z,43.82
2018-02-11T13:28:58.996Z,43.63
2018-02-11T13:29:58.999Z,44.21
2018-02-11T13:31:52.633Z,43.92
2018-02-11T13:32:52.649Z,44.31
2018-02-11T13:34:46.278Z,44.89
2018-02-11T13:35:46.306Z,44.69
2018-02-11T13:37:39.869Z,44.69
2018-02-11T13:38:39.879Z,45.07
2018-02-11T13:40:33.515Z,45.27
2018-02-11T13:41:33.511Z,45.36
2018-02-11T13:43:27.136Z,45.58
2018-02-11T13:44:27.145Z,45.29
2018-02-11T13:46:20.779Z,44.81
2018-02-11T13:47:20.783Z,44.90
2018-02-11T13:49:14.392Z,45.00
2018-02-11T13:50:14.401Z,44.90
2018-02-11T13:52:08.024Z,45.10
2018-02-11T13:53:08.090Z,44.90
2018-02-11T13:55:01.648Z,44.62
2018-02-11T13:56:01.663Z,44.71
2018-02-11T13:57:55.272Z,44.71
2018-02-11T13:58:55.282Z,44.71
2018-02-11T14:00:48.922Z,44.90
2018-02-11T14:01:48.905Z,46.83
2018-02-11T14:03:42.521Z,45.10
2018-02-11T14:04:42.529Z,45.10
2018-02-11T14:06:36.162Z,44.52
2018-02-11T14:07:36.162Z,44.90
2018-02-11T14:09:29.786Z,44.62
2018-02-11T14:10:29.794Z,44.71
2018-02-11T14:12:23.471Z,44.71
2018-02-11T14:13:23.468Z,44.71
2018-02-11T14:15:17.084Z,44.62
2018-02-11T14:16:17.092Z,44.62
2018-02-11T14:18:10.715Z,44.71
2018-02-11T14:19:10.725Z,44.81
2018-02-11T14:21:04.354Z,44.71
2018-02-11T14:22:04.357Z,44.90
2018-02-11T14:23:57.978Z,44.71
2018-02-11T14:24:58.023Z,44.79
2018-02-11T14:26:51.613Z,44.79
2018-02-11T14:27:51.610Z,44.62
2018-02-11T14:29:45.222Z,45.10
2018-02-11T14:30:45.228Z,45.56
2018-02-11T14:32:38.871Z,46.23
2018-02-11T14:33:38.850Z,46.33
2018-02-11T14:35:32.474Z,47.00
2018-02-11T14:36:32.481Z,47.10
2018-02-11T14:38:26.095Z,47.67
2018-02-11T14:39:26.101Z,47.58
2018-02-11T14:41:19.716Z,47.87
2018-02-11T14:42:19.723Z,47.67
2018-02-11T14:44:13.346Z,48.16
2018-02-11T14:45:13.354Z,47.97
2018-02-11T14:47:06.980Z,48.06
2018-02-11T14:48:06.977Z,47.87
2018-02-11T14:50:00.602Z,48.06
2018-02-11T14:51:00.610Z,48.16
2018-02-11T14:52:54.244Z,48.06
2018-02-11T14:53:54.243Z,48.16
2018-02-11T14:55:47.868Z,48.06
2018-02-11T14:56:47.878Z,47.97
2018-02-11T14:58:41.510Z,47.97
2018-02-11T14:59:41.508Z,47.97
2018-02-11T15:01:35.121Z,47.97
2018-02-11T15:02:35.129Z,48.06
2018-02-11T15:04:28.744Z,47.39
2018-02-11T15:05:28.749Z,47.39
2018-02-11T15:07:22.374Z,47.58
2018-02-11T15:08:22.372Z,47.77
2018-02-11T15:10:15.996Z,47.58
2018-02-11T15:11:16.006Z,48.06
2018-02-11T15:13:09.635Z,47.97
2018-02-11T15:14:09.629Z,47.77
2018-02-11T15:16:03.244Z,47.97
2018-02-11T15:17:03.252Z,47.97
2018-02-11T15:18:56.896Z,48.54
2018-02-11T15:19:56.896Z,48.83
2018-02-11T15:21:50.529Z,48.35
2018-02-11T15:22:50.538Z,48.25
2018-02-11T15:24:44.179Z,49.02
2018-02-11T15:25:44.171Z,48.54
2018-02-11T15:27:37.802Z,48.35
2018-02-11T15:28:37.797Z,48.35
2018-02-11T15:30:31.410Z,47.77
2018-02-11T15:31:31.418Z,47.58
2018-02-11T15:33:25.172Z,47.58
2018-02-11T15:34:25.058Z,47.58
2018-02-11T15:36:18.682Z,47.58
2018-02-11T15:37:18.689Z,47.49
2018-02-11T15:39:12.323Z,47.49
2018-02-11T15:40:12.340Z,47.29
2018-02-11T15:42:05.941Z,47.58
2018-02-11T15:43:05.952Z,47.58
2018-02-11T15:44:59.575Z,47.58
2018-02-11T15:45:59.582Z,47.39
2018-02-11T15:47:53.209Z,47.49
2018-02-11T15:48:53.206Z,47.58
2018-02-11T15:50:46.822Z,47.19
2018-02-11T15:51:46.830Z,47.58
2018-02-11T15:53:40.454Z,47.49
2018-02-11T15:54:40.454Z,47.49
2018-02-11T15:56:34.077Z,47.87
2018-02-11T15:57:34.084Z,48.06
2018-02-11T15:59:27.733Z,47.97
2018-02-11T16:00:27.717Z,48.35
2018-02-11T16:02:21.406Z,48.25
2018-02-11T16:03:21.352Z,47.87
2018-02-11T16:05:14.988Z,48.44
2018-02-11T16:06:14.996Z,48.44
2018-02-11T16:08:08.653Z,48.35
2018-02-11T16:09:08.627Z,48.16
2018-02-11T16:11:02.242Z,48.25
2018-02-11T16:12:02.251Z,48.64
2018-02-11T16:13:55.875Z,48.16
2018-02-11T16:14:55.879Z,48.16
2018-02-11T16:16:49.489Z,48.25
2018-02-11T16:17:49.497Z,48.64
2018-02-11T16:19:43.132Z,48.08
2018-02-11T16:20:43.131Z,47.41
2018-02-11T16:22:36.746Z,47.70
2018-02-11T16:23:36.758Z,47.70
2018-02-11T16:25:30.379Z,47.89
2018-02-11T16:26:30.388Z,47.89
2018-02-11T16:28:24.013Z,47.60
2018-02-11T16:29:24.059Z,47.41
2018-02-11T16:31:17.626Z,47.51
2018-02-11T16:32:17.637Z,47.41
2018-02-11T16:34:11.272Z,47.51
2018-02-11T16:35:11.270Z,47.60
2018-02-11T16:37:04.891Z,47.51
2018-02-11T16:38:04.896Z,47.41
2018-02-11T16:39:58.519Z,47.22
2018-02-11T16:40:58.517Z,47.51
2018-02-11T16:42:52.142Z,47.99
2018-02-11T16:43:52.182Z,47.80
2018-02-11T16:45:45.768Z,48.18
2018-02-11T16:46:45.773Z,47.60
2018-02-11T16:48:39.449Z,47.60
2018-02-11T16:49:39.397Z,47.89
2018-02-11T16:51:33.011Z,47.89
2018-02-11T16:52:33.018Z,47.80
2018-02-11T16:54:26.630Z,47.80
2018-02-11T16:55:26.640Z,47.41
2018-02-11T16:57:20.256Z,47.99
2018-02-11T16:58:20.262Z,47.89
2018-02-11T17:00:13.888Z,47.80
2018-02-11T17:01:13.895Z,47.70
2018-02-11T17:03:07.519Z,47.70
2018-02-11T17:04:07.519Z,47.89
2018-02-11T17:06:01.144Z,47.99
2018-02-11T17:07:01.153Z,47.99
2018-02-11T17:08:54.778Z,48.08
2018-02-11T17:09:54.785Z,48.57
2018-02-11T17:11:48.401Z,48.28
2018-02-11T17:12:48.409Z,48.57
2018-02-11T17:14:42.024Z,48.95
2018-02-11T17:15:42.033Z,48.76
2018-02-11T17:17:35.694Z,48.76
2018-02-11T17:18:35.657Z,48.66
2018-02-11T17:20:29.275Z,48.76
2018-02-11T17:21:29.283Z,48.64
2018-02-11T17:23:22.895Z,48.47
2018-02-11T17:24:22.904Z,48.83
2018-02-11T17:26:16.529Z,48.93
2018-02-11T17:27:16.535Z,49.02
2018-02-11T17:29:10.163Z,49.12
2018-02-11T17:30:10.171Z,49.41
2018-02-11T17:32:03.796Z,49.60
2018-02-11T17:33:03.804Z,49.60
2018-02-11T17:34:57.420Z,50.18
2018-02-11T17:35:57.427Z,50.27
2018-02-11T17:37:51.043Z,50.57
2018-02-11T17:38:51.052Z,50.57
2018-02-11T17:40:44.680Z,50.95
2018-02-11T17:41:44.683Z,51.05
2018-02-11T17:43:38.310Z,51.43
2018-02-11T17:44:38.318Z,51.14
2018-02-11T17:46:31.934Z,51.26
2018-02-11T17:47:31.944Z,51.36
2018-02-11T17:49:25.578Z,51.46
2018-02-11T17:50:25.587Z,51.46
2018-02-11T17:52:19.202Z,51.75
2018-02-11T17:53:19.210Z,51.17
2018-02-11T17:55:12.888Z,50.78
2018-02-11T17:56:12.862Z,51.56
2018-02-11T17:58:06.478Z,52.04
2018-02-11T17:59:06.485Z,51.75
2018-02-11T18:01:00.107Z,50.98
2018-02-11T18:02:00.111Z,51.75
2018-02-11T18:03:53.731Z,51.17
2018-02-11T18:04:53.743Z,51.75
2018-02-11T18:06:47.352Z,51.07
2018-02-11T18:07:47.367Z,51.17
2018-02-11T18:09:40.981Z,51.36
2018-02-11T18:10:40.986Z,51.26
2018-02-11T18:12:35.602Z,50.78
2018-02-11T18:13:35.609Z,50.78
2018-02-11T18:15:29.244Z,50.69
2018-02-11T18:16:29.253Z,50.40
2018-02-11T18:18:22.877Z,50.78
2018-02-11T18:19:22.877Z,50.88
2018-02-11T18:21:16.493Z,50.59
2018-02-11T18:22:16.501Z,50.49
2018-02-11T18:24:10.116Z,50.59
2018-02-11T18:25:10.125Z,50.69
2018-02-11T18:27:03.741Z,50.59
2018-02-11T18:28:03.754Z,50.59
2018-02-11T18:29:57.364Z,50.49
2018-02-11T18:30:57.374Z,50.69
2018-02-11T18:32:50.990Z,50.30
2018-02-11T18:33:50.998Z,50.69
2018-02-11T18:35:44.614Z,51.46
2018-02-11T18:36:44.624Z,51.94
2018-02-11T18:38:38.249Z,50.78